sensor_id;sensor_type;location;lat;lon;timestamp;P1;durP1;ratioP1;P2;durP2;ratioP2
6452;SDS011;3259;51.080;13.712;2023-07-08T00:00:52;4.63;;;4.22;;
6452;SDS011;3259;51.080;13.712;2023-07-08T00:03:42;4.68;;;3.60;;
6452;SDS011;3259;51.080;13.712;2023-07-08T00:06:31;7.30;;;3.50;;
6452;SDS011;3259;51.080;13.712;2023-07-08T00:09:20;4.55;;;2.95;;
6452;SDS011;3259;51.080;13.712;2023-07-08T00:12:10;5.43;;;3.28;;
6452;SDS011;3259;51.080;13.712;2023-07-08T00:15:00;5.80;;;3.53;;
6452;SDS011;3259;51.080;13.712;2023-07-08T00:17:49;5.25;;;2.65;;
6452;SDS011;3259;51.080;13.712;2023-07-08T00:20:39;5.38;;;3.60;;
6452;SDS011;3259;51.080;13.712;2023-07-08T00:23:30;4.53;;;3.60;;
6452;SDS011;3259;51.080;13.712;2023-07-08T00:26:19;3.03;;;2.80;;
6452;SDS011;3259;51.080;13.712;2023-07-08T00:29:11;5.63;;;3.17;;
6452;SDS011;3259;51.080;13.712;2023-07-08T00:32:04;3.08;;;2.88;;
6452;SDS011;3259;51.080;13.712;2023-07-08T00:34:58;4.05;;;3.65;;
6452;SDS011;3259;51.080;13.712;2023-07-08T00:37:47;3.10;;;2.83;;
6452;SDS011;3259;51.080;13.712;2023-07-08T00:40:36;2.70;;;2.50;;
6452;SDS011;3259;51.080;13.712;2023-07-08T00:43:29;4.97;;;2.65;;
6452;SDS011;3259;51.080;13.712;2023-07-08T00:46:30;5.15;;;3.17;;
6452;SDS011;3259;51.080;13.712;2023-07-08T00:49:26;8.07;;;2.90;;
6452;SDS011;3259;51.080;13.712;2023-07-08T00:52:25;3.10;;;2.80;;
6452;SDS011;3259;51.080;13.712;2023-07-08T00:55:15;2.95;;;2.50;;
6452;SDS011;3259;51.080;13.712;2023-07-08T00:58:03;5.57;;;2.95;;
6452;SDS011;3259;51.080;13.712;2023-07-08T01:00:52;3.45;;;2.78;;
6452;SDS011;3259;51.080;13.712;2023-07-08T01:03:45;3.17;;;2.88;;
6452;SDS011;3259;51.080;13.712;2023-07-08T01:06:39;2.97;;;2.35;;
6452;SDS011;3259;51.080;13.712;2023-07-08T01:09:33;5.38;;;2.28;;
6452;SDS011;3259;51.080;13.712;2023-07-08T01:12:27;3.05;;;2.75;;
6452;SDS011;3259;51.080;13.712;2023-07-08T01:15:19;2.63;;;2.42;;
6452;SDS011;3259;51.080;13.712;2023-07-08T01:18:11;3.42;;;2.80;;
6452;SDS011;3259;51.080;13.712;2023-07-08T01:21:03;8.60;;;3.00;;
6452;SDS011;3259;51.080;13.712;2023-07-08T01:23:55;3.50;;;2.58;;
6452;SDS011;3259;51.080;13.712;2023-07-08T01:26:44;4.75;;;2.53;;
6452;SDS011;3259;51.080;13.712;2023-07-08T01:29:34;2.38;;;2.20;;
6452;SDS011;3259;51.080;13.712;2023-07-08T01:32:23;2.80;;;2.60;;
6452;SDS011;3259;51.080;13.712;2023-07-08T01:35:12;2.65;;;2.45;;
6452;SDS011;3259;51.080;13.712;2023-07-08T01:38:02;2.80;;;2.50;;
6452;SDS011;3259;51.080;13.712;2023-07-08T01:40:56;3.95;;;3.38;;
6452;SDS011;3259;51.080;13.712;2023-07-08T01:43:46;3.03;;;2.22;;
6452;SDS011;3259;51.080;13.712;2023-07-08T01:46:35;6.72;;;3.88;;
6452;SDS011;3259;51.080;13.712;2023-07-08T01:49:24;2.97;;;2.70;;
6452;SDS011;3259;51.080;13.712;2023-07-08T01:52:13;6.57;;;3.35;;
6452;SDS011;3259;51.080;13.712;2023-07-08T01:55:03;5.97;;;3.15;;
6452;SDS011;3259;51.080;13.712;2023-07-08T01:57:54;3.97;;;3.58;;
6452;SDS011;3259;51.080;13.712;2023-07-08T02:00:43;4.38;;;3.42;;
6452;SDS011;3259;51.080;13.712;2023-07-08T02:03:35;4.50;;;3.15;;
6452;SDS011;3259;51.080;13.712;2023-07-08T02:06:24;5.47;;;2.90;;
6452;SDS011;3259;51.080;13.712;2023-07-08T02:09:12;3.25;;;2.72;;
6452;SDS011;3259;51.080;13.712;2023-07-08T02:12:01;4.55;;;3.15;;
6452;SDS011;3259;51.080;13.712;2023-07-08T02:14:51;3.47;;;2.83;;
6452;SDS011;3259;51.080;13.712;2023-07-08T02:17:40;4.65;;;2.67;;
6452;SDS011;3259;51.080;13.712;2023-07-08T02:20:29;2.97;;;2.67;;
6452;SDS011;3259;51.080;13.712;2023-07-08T02:23:18;2.80;;;2.53;;
6452;SDS011;3259;51.080;13.712;2023-07-08T02:26:06;5.07;;;3.00;;
6452;SDS011;3259;51.080;13.712;2023-07-08T02:28:55;2.65;;;2.47;;
6452;SDS011;3259;51.080;13.712;2023-07-08T02:31:45;2.85;;;2.60;;
6452;SDS011;3259;51.080;13.712;2023-07-08T02:34:34;2.95;;;2.45;;
6452;SDS011;3259;51.080;13.712;2023-07-08T02:37:23;2.80;;;2.60;;
6452;SDS011;3259;51.080;13.712;2023-07-08T02:40:12;3.67;;;3.15;;
6452;SDS011;3259;51.080;13.712;2023-07-08T02:43:01;3.40;;;3.00;;
6452;SDS011;3259;51.080;13.712;2023-07-08T02:45:50;3.80;;;2.97;;
6452;SDS011;3259;51.080;13.712;2023-07-08T02:48:40;5.32;;;3.03;;
6452;SDS011;3259;51.080;13.712;2023-07-08T02:51:29;2.90;;;2.70;;
6452;SDS011;3259;51.080;13.712;2023-07-08T02:54:18;5.93;;;2.83;;
6452;SDS011;3259;51.080;13.712;2023-07-08T02:57:06;6.70;;;3.08;;
6452;SDS011;3259;51.080;13.712;2023-07-08T02:59:55;3.15;;;2.95;;
6452;SDS011;3259;51.080;13.712;2023-07-08T03:02:44;2.40;;;2.22;;
6452;SDS011;3259;51.080;13.712;2023-07-08T03:05:35;3.80;;;2.90;;
6452;SDS011;3259;51.080;13.712;2023-07-08T03:08:23;3.75;;;2.85;;
6452;SDS011;3259;51.080;13.712;2023-07-08T03:11:12;2.90;;;2.70;;
6452;SDS011;3259;51.080;13.712;2023-07-08T03:14:01;3.45;;;3.15;;
6452;SDS011;3259;51.080;13.712;2023-07-08T03:16:50;8.07;;;3.25;;
6452;SDS011;3259;51.080;13.712;2023-07-08T03:19:39;2.80;;;2.60;;
6452;SDS011;3259;51.080;13.712;2023-07-08T03:22:29;2.40;;;2.20;;
6452;SDS011;3259;51.080;13.712;2023-07-08T03:25:18;5.47;;;2.97;;
6452;SDS011;3259;51.080;13.712;2023-07-08T03:28:07;3.42;;;2.92;;
6452;SDS011;3259;51.080;13.712;2023-07-08T03:31:00;4.63;;;3.13;;
6452;SDS011;3259;51.080;13.712;2023-07-08T03:33:49;3.47;;;3.17;;
6452;SDS011;3259;51.080;13.712;2023-07-08T03:36:40;5.47;;;3.50;;
6452;SDS011;3259;51.080;13.712;2023-07-08T03:39:36;3.25;;;2.92;;
6452;SDS011;3259;51.080;13.712;2023-07-08T03:42:25;3.88;;;2.63;;
6452;SDS011;3259;51.080;13.712;2023-07-08T03:45:14;6.05;;;3.13;;
6452;SDS011;3259;51.080;13.712;2023-07-08T03:48:03;7.22;;;3.05;;
6452;SDS011;3259;51.080;13.712;2023-07-08T03:50:51;3.90;;;2.30;;
6452;SDS011;3259;51.080;13.712;2023-07-08T03:53:40;8.68;;;3.15;;
6452;SDS011;3259;51.080;13.712;2023-07-08T03:56:30;2.72;;;2.47;;
6452;SDS011;3259;51.080;13.712;2023-07-08T03:59:19;3.60;;;2.55;;
6452;SDS011;3259;51.080;13.712;2023-07-08T04:02:08;4.80;;;3.10;;
6452;SDS011;3259;51.080;13.712;2023-07-08T04:04:58;4.63;;;2.72;;
6452;SDS011;3259;51.080;13.712;2023-07-08T04:07:46;3.00;;;2.58;;
6452;SDS011;3259;51.080;13.712;2023-07-08T04:10:36;3.95;;;2.72;;
6452;SDS011;3259;51.080;13.712;2023-07-08T04:13:26;2.80;;;2.58;;
6452;SDS011;3259;51.080;13.712;2023-07-08T04:16:16;3.83;;;2.65;;
6452;SDS011;3259;51.080;13.712;2023-07-08T04:19:07;4.03;;;3.00;;
6452;SDS011;3259;51.080;13.712;2023-07-08T04:22:01;4.85;;;2.90;;
6452;SDS011;3259;51.080;13.712;2023-07-08T04:24:50;2.60;;;2.40;;
6452;SDS011;3259;51.080;13.712;2023-07-08T04:27:39;4.28;;;2.75;;
6452;SDS011;3259;51.080;13.712;2023-07-08T04:30:29;5.00;;;2.25;;
6452;SDS011;3259;51.080;13.712;2023-07-08T04:33:18;5.85;;;2.67;;
6452;SDS011;3259;51.080;13.712;2023-07-08T04:36:09;2.60;;;2.38;;
6452;SDS011;3259;51.080;13.712;2023-07-08T04:39:01;3.92;;;2.67;;
6452;SDS011;3259;51.080;13.712;2023-07-08T04:41:51;3.03;;;2.67;;
6452;SDS011;3259;51.080;13.712;2023-07-08T04:44:40;5.70;;;2.65;;
6452;SDS011;3259;51.080;13.712;2023-07-08T04:47:30;4.22;;;3.03;;
6452;SDS011;3259;51.080;13.712;2023-07-08T04:50:20;3.17;;;2.70;;
6452;SDS011;3259;51.080;13.712;2023-07-08T04:53:09;6.07;;;2.75;;
6452;SDS011;3259;51.080;13.712;2023-07-08T04:55:59;5.70;;;2.83;;
6452;SDS011;3259;51.080;13.712;2023-07-08T04:58:48;2.50;;;2.30;;
6452;SDS011;3259;51.080;13.712;2023-07-08T05:01:37;6.68;;;2.95;;
6452;SDS011;3259;51.080;13.712;2023-07-08T05:04:27;3.28;;;2.90;;
6452;SDS011;3259;51.080;13.712;2023-07-08T05:07:16;2.72;;;2.47;;
6452;SDS011;3259;51.080;13.712;2023-07-08T05:10:05;4.15;;;2.58;;
6452;SDS011;3259;51.080;13.712;2023-07-08T05:12:54;2.65;;;2.33;;
6452;SDS011;3259;51.080;13.712;2023-07-08T05:15:43;3.65;;;2.83;;
6452;SDS011;3259;51.080;13.712;2023-07-08T05:18:31;2.85;;;2.40;;
6452;SDS011;3259;51.080;13.712;2023-07-08T05:21:22;3.40;;;2.60;;
6452;SDS011;3259;51.080;13.712;2023-07-08T05:24:11;1.90;;;1.80;;
6452;SDS011;3259;51.080;13.712;2023-07-08T05:27:00;3.00;;;2.35;;
6452;SDS011;3259;51.080;13.712;2023-07-08T05:29:48;6.47;;;2.42;;
6452;SDS011;3259;51.080;13.712;2023-07-08T05:32:38;6.15;;;2.00;;
6452;SDS011;3259;51.080;13.712;2023-07-08T05:35:26;3.03;;;2.30;;
6452;SDS011;3259;51.080;13.712;2023-07-08T05:38:17;5.70;;;2.60;;
6452;SDS011;3259;51.080;13.712;2023-07-08T05:41:06;2.88;;;2.63;;
6452;SDS011;3259;51.080;13.712;2023-07-08T05:43:55;2.45;;;2.25;;
6452;SDS011;3259;51.080;13.712;2023-07-08T05:46:43;5.93;;;2.33;;
6452;SDS011;3259;51.080;13.712;2023-07-08T05:49:32;2.67;;;2.40;;
6452;SDS011;3259;51.080;13.712;2023-07-08T05:52:21;2.33;;;2.05;;
6452;SDS011;3259;51.080;13.712;2023-07-08T05:55:11;2.47;;;2.33;;
6452;SDS011;3259;51.080;13.712;2023-07-08T05:58:00;3.55;;;2.22;;
6452;SDS011;3259;51.080;13.712;2023-07-08T06:00:57;5.30;;;2.15;;
6452;SDS011;3259;51.080;13.712;2023-07-08T06:03:47;2.78;;;2.35;;
6452;SDS011;3259;51.080;13.712;2023-07-08T06:06:36;5.05;;;2.67;;
6452;SDS011;3259;51.080;13.712;2023-07-08T06:09:25;5.10;;;1.95;;
6452;SDS011;3259;51.080;13.712;2023-07-08T06:12:15;2.30;;;2.03;;
6452;SDS011;3259;51.080;13.712;2023-07-08T06:15:04;2.22;;;2.03;;
6452;SDS011;3259;51.080;13.712;2023-07-08T06:17:54;4.15;;;2.42;;
6452;SDS011;3259;51.080;13.712;2023-07-08T06:20:50;2.47;;;1.92;;
6452;SDS011;3259;51.080;13.712;2023-07-08T06:23:39;4.28;;;2.10;;
6452;SDS011;3259;51.080;13.712;2023-07-08T06:26:28;2.08;;;1.95;;
6452;SDS011;3259;51.080;13.712;2023-07-08T06:29:18;9.52;;;2.17;;
6452;SDS011;3259;51.080;13.712;2023-07-08T06:32:07;5.35;;;2.15;;
6452;SDS011;3259;51.080;13.712;2023-07-08T06:34:57;31.65;;;4.13;;
6452;SDS011;3259;51.080;13.712;2023-07-08T06:37:45;22.00;;;5.65;;
6452;SDS011;3259;51.080;13.712;2023-07-08T06:40:34;8.43;;;3.13;;
6452;SDS011;3259;51.080;13.712;2023-07-08T06:43:23;5.90;;;2.58;;
6452;SDS011;3259;51.080;13.712;2023-07-08T06:46:13;22.45;;;6.45;;
6452;SDS011;3259;51.080;13.712;2023-07-08T06:49:02;12.52;;;4.55;;
6452;SDS011;3259;51.080;13.712;2023-07-08T06:51:55;15.15;;;3.13;;
6452;SDS011;3259;51.080;13.712;2023-07-08T06:54:46;7.20;;;3.35;;
6452;SDS011;3259;51.080;13.712;2023-07-08T06:57:35;11.60;;;3.58;;
6452;SDS011;3259;51.080;13.712;2023-07-08T07:00:25;22.20;;;3.80;;
6452;SDS011;3259;51.080;13.712;2023-07-08T07:03:15;13.38;;;3.50;;
6452;SDS011;3259;51.080;13.712;2023-07-08T07:06:04;9.43;;;4.00;;
6452;SDS011;3259;51.080;13.712;2023-07-08T07:08:52;6.25;;;2.65;;
6452;SDS011;3259;51.080;13.712;2023-07-08T07:11:41;3.45;;;2.58;;
6452;SDS011;3259;51.080;13.712;2023-07-08T07:14:29;2.88;;;2.08;;
6452;SDS011;3259;51.080;13.712;2023-07-08T07:17:22;6.25;;;2.70;;
6452;SDS011;3259;51.080;13.712;2023-07-08T07:20:14;8.75;;;2.83;;
6452;SDS011;3259;51.080;13.712;2023-07-08T07:23:03;6.78;;;2.78;;
6452;SDS011;3259;51.080;13.712;2023-07-08T07:25:52;12.35;;;9.63;;
6452;SDS011;3259;51.080;13.712;2023-07-08T07:28:41;16.17;;;8.98;;
6452;SDS011;3259;51.080;13.712;2023-07-08T07:31:29;13.35;;;6.78;;
6452;SDS011;3259;51.080;13.712;2023-07-08T07:34:19;5.80;;;5.18;;
6452;SDS011;3259;51.080;13.712;2023-07-08T07:37:10;7.93;;;5.18;;
6452;SDS011;3259;51.080;13.712;2023-07-08T07:40:00;5.63;;;4.15;;
6452;SDS011;3259;51.080;13.712;2023-07-08T07:42:49;6.30;;;4.45;;
6452;SDS011;3259;51.080;13.712;2023-07-08T07:45:38;5.25;;;3.33;;
6452;SDS011;3259;51.080;13.712;2023-07-08T07:48:27;2.97;;;2.78;;
6452;SDS011;3259;51.080;13.712;2023-07-08T07:51:16;2.92;;;2.58;;
6452;SDS011;3259;51.080;13.712;2023-07-08T07:54:06;2.22;;;2.03;;
6452;SDS011;3259;51.080;13.712;2023-07-08T07:56:54;2.53;;;2.33;;
6452;SDS011;3259;51.080;13.712;2023-07-08T07:59:43;2.63;;;2.22;;
6452;SDS011;3259;51.080;13.712;2023-07-08T08:02:32;3.25;;;2.95;;
6452;SDS011;3259;51.080;13.712;2023-07-08T08:05:21;2.78;;;2.53;;
6452;SDS011;3259;51.080;13.712;2023-07-08T08:08:10;2.80;;;2.58;;
6452;SDS011;3259;51.080;13.712;2023-07-08T08:11:00;2.65;;;2.28;;
6452;SDS011;3259;51.080;13.712;2023-07-08T08:13:48;3.10;;;2.15;;
6452;SDS011;3259;51.080;13.712;2023-07-08T08:16:39;2.45;;;2.25;;
6452;SDS011;3259;51.080;13.712;2023-07-08T08:19:28;5.10;;;1.90;;
6452;SDS011;3259;51.080;13.712;2023-07-08T08:22:16;5.57;;;1.55;;
6452;SDS011;3259;51.080;13.712;2023-07-08T08:25:08;7.63;;;2.15;;
6452;SDS011;3259;51.080;13.712;2023-07-08T08:27:58;4.35;;;2.15;;
6452;SDS011;3259;51.080;13.712;2023-07-08T08:30:47;3.75;;;2.40;;
6452;SDS011;3259;51.080;13.712;2023-07-08T08:33:36;5.75;;;2.17;;
6452;SDS011;3259;51.080;13.712;2023-07-08T08:36:27;7.22;;;2.60;;
6452;SDS011;3259;51.080;13.712;2023-07-08T08:39:16;6.88;;;2.65;;
6452;SDS011;3259;51.080;13.712;2023-07-08T08:42:06;5.20;;;3.10;;
6452;SDS011;3259;51.080;13.712;2023-07-08T08:45:05;4.28;;;2.33;;
6452;SDS011;3259;51.080;13.712;2023-07-08T08:47:59;6.97;;;2.15;;
6452;SDS011;3259;51.080;13.712;2023-07-08T08:50:51;4.10;;;2.15;;
6452;SDS011;3259;51.080;13.712;2023-07-08T08:53:45;2.88;;;2.10;;
6452;SDS011;3259;51.080;13.712;2023-07-08T08:56:38;2.40;;;2.00;;
6452;SDS011;3259;51.080;13.712;2023-07-08T08:59:35;3.88;;;2.72;;
6452;SDS011;3259;51.080;13.712;2023-07-08T09:02:34;4.10;;;1.88;;
6452;SDS011;3259;51.080;13.712;2023-07-08T09:05:30;1.58;;;1.50;;
6452;SDS011;3259;51.080;13.712;2023-07-08T09:08:20;2.97;;;1.92;;
6452;SDS011;3259;51.080;13.712;2023-07-08T09:11:34;6.47;;;2.17;;
6452;SDS011;3259;51.080;13.712;2023-07-08T09:14:29;3.67;;;1.92;;
6452;SDS011;3259;51.080;13.712;2023-07-08T09:17:22;2.25;;;2.03;;
6452;SDS011;3259;51.080;13.712;2023-07-08T09:20:20;1.63;;;1.52;;
6452;SDS011;3259;51.080;13.712;2023-07-08T09:23:11;2.38;;;1.92;;
6452;SDS011;3259;51.080;13.712;2023-07-08T09:26:09;2.33;;;2.10;;
6452;SDS011;3259;51.080;13.712;2023-07-08T09:29:07;3.65;;;1.77;;
6452;SDS011;3259;51.080;13.712;2023-07-08T09:31:57;10.43;;;2.30;;
6452;SDS011;3259;51.080;13.712;2023-07-08T09:34:49;5.30;;;2.05;;
6452;SDS011;3259;51.080;13.712;2023-07-08T09:37:40;3.63;;;1.73;;
6452;SDS011;3259;51.080;13.712;2023-07-08T09:40:34;2.70;;;1.35;;
6452;SDS011;3259;51.080;13.712;2023-07-08T09:43:24;4.47;;;1.70;;
6452;SDS011;3259;51.080;13.712;2023-07-08T09:46:14;6.72;;;1.60;;
6452;SDS011;3259;51.080;13.712;2023-07-08T09:49:09;2.55;;;1.58;;
6452;SDS011;3259;51.080;13.712;2023-07-08T09:52:11;8.73;;;1.60;;
6452;SDS011;3259;51.080;13.712;2023-07-08T09:55:01;6.10;;;1.58;;
6452;SDS011;3259;51.080;13.712;2023-07-08T09:57:51;2.25;;;1.40;;
6452;SDS011;3259;51.080;13.712;2023-07-08T10:00:41;2.85;;;1.98;;
6452;SDS011;3259;51.080;13.712;2023-07-08T10:03:32;4.05;;;1.42;;
6452;SDS011;3259;51.080;13.712;2023-07-08T10:06:24;4.18;;;1.40;;
6452;SDS011;3259;51.080;13.712;2023-07-08T10:09:23;2.33;;;1.58;;
6452;SDS011;3259;51.080;13.712;2023-07-08T10:12:14;3.78;;;1.63;;
6452;SDS011;3259;51.080;13.712;2023-07-08T10:15:05;2.20;;;1.77;;
6452;SDS011;3259;51.080;13.712;2023-07-08T10:18:03;3.35;;;2.00;;
6452;SDS011;3259;51.080;13.712;2023-07-08T10:20:56;2.28;;;1.70;;
6452;SDS011;3259;51.080;13.712;2023-07-08T10:23:50;7.53;;;2.30;;
6452;SDS011;3259;51.080;13.712;2023-07-08T10:26:48;4.50;;;1.95;;
6452;SDS011;3259;51.080;13.712;2023-07-08T10:29:47;3.42;;;1.92;;
6452;SDS011;3259;51.080;13.712;2023-07-08T10:32:44;3.35;;;2.15;;
6452;SDS011;3259;51.080;13.712;2023-07-08T10:35:48;7.07;;;2.15;;
6452;SDS011;3259;51.080;13.712;2023-07-08T10:39:14;5.55;;;2.38;;
6452;SDS011;3259;51.080;13.712;2023-07-08T10:42:24;6.35;;;2.53;;
6452;SDS011;3259;51.080;13.712;2023-07-08T10:45:26;4.00;;;2.33;;
6452;SDS011;3259;51.080;13.712;2023-07-08T10:48:24;25.52;;;3.38;;
6452;SDS011;3259;51.080;13.712;2023-07-08T10:51:30;54.65;;;5.18;;
6452;SDS011;3259;51.080;13.712;2023-07-08T10:54:34;15.05;;;2.95;;
6452;SDS011;3259;51.080;13.712;2023-07-08T10:57:40;25.60;;;3.40;;
6452;SDS011;3259;51.080;13.712;2023-07-08T11:00:45;66.35;;;5.38;;
6452;SDS011;3259;51.080;13.712;2023-07-08T11:03:46;119.97;;;8.52;;
6452;SDS011;3259;51.080;13.712;2023-07-08T11:06:55;53.00;;;5.07;;
6452;SDS011;3259;51.080;13.712;2023-07-08T11:09:48;55.33;;;5.60;;
6452;SDS011;3259;51.080;13.712;2023-07-08T11:12:42;23.05;;;3.85;;
6452;SDS011;3259;51.080;13.712;2023-07-08T11:15:36;43.00;;;5.20;;
6452;SDS011;3259;51.080;13.712;2023-07-08T11:18:37;46.60;;;5.40;;
6452;SDS011;3259;51.080;13.712;2023-07-08T11:21:32;20.05;;;4.13;;
6452;SDS011;3259;51.080;13.712;2023-07-08T11:24:27;21.17;;;3.50;;
6452;SDS011;3259;51.080;13.712;2023-07-08T11:27:22;20.20;;;3.10;;
6452;SDS011;3259;51.080;13.712;2023-07-08T11:30:14;20.48;;;3.63;;
6452;SDS011;3259;51.080;13.712;2023-07-08T11:33:06;17.50;;;3.45;;
6452;SDS011;3259;51.080;13.712;2023-07-08T11:36:00;21.40;;;3.85;;
6452;SDS011;3259;51.080;13.712;2023-07-08T11:38:50;20.23;;;3.92;;
6452;SDS011;3259;51.080;13.712;2023-07-08T11:41:42;16.88;;;4.05;;
6452;SDS011;3259;51.080;13.712;2023-07-08T11:44:33;8.40;;;3.50;;
6452;SDS011;3259;51.080;13.712;2023-07-08T11:47:25;9.63;;;3.72;;
6452;SDS011;3259;51.080;13.712;2023-07-08T11:50:20;18.17;;;3.35;;
6452;SDS011;3259;51.080;13.712;2023-07-08T11:53:14;22.52;;;9.50;;
6452;SDS011;3259;51.080;13.712;2023-07-08T11:56:23;11.90;;;5.55;;
6452;SDS011;3259;51.080;13.712;2023-07-08T11:59:15;13.80;;;4.95;;
6452;SDS011;3259;51.080;13.712;2023-07-08T12:02:10;13.75;;;4.82;;
6452;SDS011;3259;51.080;13.712;2023-07-08T12:05:11;14.73;;;5.55;;
6452;SDS011;3259;51.080;13.712;2023-07-08T12:08:01;13.45;;;4.50;;
6452;SDS011;3259;51.080;13.712;2023-07-08T12:10:52;10.27;;;4.40;;
6452;SDS011;3259;51.080;13.712;2023-07-08T12:13:41;12.20;;;4.90;;
6452;SDS011;3259;51.080;13.712;2023-07-08T12:16:30;14.15;;;4.97;;
6452;SDS011;3259;51.080;13.712;2023-07-08T12:19:21;10.63;;;4.88;;
6452;SDS011;3259;51.080;13.712;2023-07-08T12:22:15;16.30;;;4.57;;
6452;SDS011;3259;51.080;13.712;2023-07-08T12:25:07;13.73;;;5.10;;
6452;SDS011;3259;51.080;13.712;2023-07-08T12:28:02;9.18;;;3.97;;
6452;SDS011;3259;51.080;13.712;2023-07-08T12:30:51;10.07;;;4.78;;
6452;SDS011;3259;51.080;13.712;2023-07-08T12:33:42;10.48;;;3.95;;
6452;SDS011;3259;51.080;13.712;2023-07-08T12:36:32;7.38;;;3.70;;
6452;SDS011;3259;51.080;13.712;2023-07-08T12:39:22;8.30;;;3.97;;
6452;SDS011;3259;51.080;13.712;2023-07-08T12:42:11;10.18;;;4.75;;
6452;SDS011;3259;51.080;13.712;2023-07-08T12:45:09;9.40;;;4.28;;
6452;SDS011;3259;51.080;13.712;2023-07-08T12:48:02;15.77;;;4.50;;
6452;SDS011;3259;51.080;13.712;2023-07-08T12:50:51;5.85;;;3.53;;
6452;SDS011;3259;51.080;13.712;2023-07-08T12:53:44;7.35;;;4.30;;
6452;SDS011;3259;51.080;13.712;2023-07-08T12:56:32;8.32;;;4.20;;
6452;SDS011;3259;51.080;13.712;2023-07-08T12:59:24;7.70;;;3.67;;
6452;SDS011;3259;51.080;13.712;2023-07-08T13:02:16;7.30;;;3.72;;
6452;SDS011;3259;51.080;13.712;2023-07-08T13:05:10;7.10;;;3.80;;
6452;SDS011;3259;51.080;13.712;2023-07-08T13:08:00;6.97;;;3.60;;
6452;SDS011;3259;51.080;13.712;2023-07-08T13:10:49;7.82;;;3.92;;
6452;SDS011;3259;51.080;13.712;2023-07-08T13:13:41;6.55;;;3.50;;
6452;SDS011;3259;51.080;13.712;2023-07-08T13:16:36;4.78;;;2.88;;
6452;SDS011;3259;51.080;13.712;2023-07-08T13:19:26;5.72;;;3.10;;
6452;SDS011;3259;51.080;13.712;2023-07-08T13:22:16;5.25;;;3.33;;
6452;SDS011;3259;51.080;13.712;2023-07-08T13:25:09;6.55;;;3.33;;
6452;SDS011;3259;51.080;13.712;2023-07-08T13:28:16;6.13;;;3.15;;
6452;SDS011;3259;51.080;13.712;2023-07-08T13:31:13;7.10;;;3.42;;
6452;SDS011;3259;51.080;13.712;2023-07-08T13:34:13;6.28;;;3.08;;
6452;SDS011;3259;51.080;13.712;2023-07-08T13:37:07;4.35;;;2.67;;
6452;SDS011;3259;51.080;13.712;2023-07-08T13:39:59;7.28;;;3.65;;
6452;SDS011;3259;51.080;13.712;2023-07-08T13:42:51;3.75;;;2.45;;
6452;SDS011;3259;51.080;13.712;2023-07-08T13:45:43;4.30;;;2.75;;
6452;SDS011;3259;51.080;13.712;2023-07-08T13:48:36;4.53;;;2.78;;
6452;SDS011;3259;51.080;13.712;2023-07-08T13:51:29;3.75;;;2.70;;
6452;SDS011;3259;51.080;13.712;2023-07-08T13:54:22;7.95;;;2.70;;
6452;SDS011;3259;51.080;13.712;2023-07-08T13:57:18;8.82;;;3.13;;
6452;SDS011;3259;51.080;13.712;2023-07-08T14:00:12;6.13;;;2.50;;
6452;SDS011;3259;51.080;13.712;2023-07-08T14:03:04;4.15;;;2.70;;
6452;SDS011;3259;51.080;13.712;2023-07-08T14:05:59;5.35;;;2.50;;
6452;SDS011;3259;51.080;13.712;2023-07-08T14:08:47;4.75;;;2.17;;
6452;SDS011;3259;51.080;13.712;2023-07-08T14:11:37;4.63;;;2.58;;
6452;SDS011;3259;51.080;13.712;2023-07-08T14:14:26;4.20;;;2.58;;
6452;SDS011;3259;51.080;13.712;2023-07-08T14:17:18;4.93;;;2.10;;
6452;SDS011;3259;51.080;13.712;2023-07-08T14:20:13;8.50;;;2.55;;
6452;SDS011;3259;51.080;13.712;2023-07-08T14:23:05;3.70;;;2.58;;
6452;SDS011;3259;51.080;13.712;2023-07-08T14:25:56;6.93;;;2.40;;
6452;SDS011;3259;51.080;13.712;2023-07-08T14:28:46;2.58;;;2.22;;
6452;SDS011;3259;51.080;13.712;2023-07-08T14:31:34;4.43;;;2.40;;
6452;SDS011;3259;51.080;13.712;2023-07-08T14:34:24;2.65;;;2.40;;
6452;SDS011;3259;51.080;13.712;2023-07-08T14:37:14;2.58;;;2.13;;
6452;SDS011;3259;51.080;13.712;2023-07-08T14:40:09;3.65;;;2.42;;
6452;SDS011;3259;51.080;13.712;2023-07-08T14:43:09;3.03;;;2.03;;
6452;SDS011;3259;51.080;13.712;2023-07-08T14:46:03;2.47;;;1.90;;
6452;SDS011;3259;51.080;13.712;2023-07-08T14:48:53;2.00;;;1.73;;
6452;SDS011;3259;51.080;13.712;2023-07-08T14:51:41;3.17;;;2.00;;
6452;SDS011;3259;51.080;13.712;2023-07-08T14:54:30;2.72;;;1.38;;
6452;SDS011;3259;51.080;13.712;2023-07-08T14:57:18;2.85;;;2.10;;
6452;SDS011;3259;51.080;13.712;2023-07-08T15:00:09;4.30;;;2.20;;
6452;SDS011;3259;51.080;13.712;2023-07-08T15:03:00;3.20;;;2.13;;
6452;SDS011;3259;51.080;13.712;2023-07-08T15:05:50;2.85;;;1.58;;
6452;SDS011;3259;51.080;13.712;2023-07-08T15:08:38;3.67;;;1.90;;
6452;SDS011;3259;51.080;13.712;2023-07-08T15:11:27;8.40;;;2.00;;
6452;SDS011;3259;51.080;13.712;2023-07-08T15:14:17;3.22;;;2.00;;
6452;SDS011;3259;51.080;13.712;2023-07-08T15:17:09;2.25;;;1.45;;
6452;SDS011;3259;51.080;13.712;2023-07-08T15:20:08;3.13;;;1.40;;
6452;SDS011;3259;51.080;13.712;2023-07-08T15:22:59;2.17;;;1.20;;
6452;SDS011;3259;51.080;13.712;2023-07-08T15:25:48;1.67;;;1.35;;
6452;SDS011;3259;51.080;13.712;2023-07-08T15:28:39;1.70;;;1.38;;
6452;SDS011;3259;51.080;13.712;2023-07-08T15:31:34;2.08;;;1.50;;
6452;SDS011;3259;51.080;13.712;2023-07-08T15:34:23;1.70;;;1.60;;
6452;SDS011;3259;51.080;13.712;2023-07-08T15:37:13;1.05;;;1.02;;
6452;SDS011;3259;51.080;13.712;2023-07-08T15:40:02;2.22;;;1.33;;
6452;SDS011;3259;51.080;13.712;2023-07-08T15:42:55;1.90;;;1.27;;
6452;SDS011;3259;51.080;13.712;2023-07-08T15:45:46;2.75;;;1.52;;
6452;SDS011;3259;51.080;13.712;2023-07-08T15:48:35;1.83;;;1.40;;
6452;SDS011;3259;51.080;13.712;2023-07-08T15:51:23;3.33;;;1.60;;
6452;SDS011;3259;51.080;13.712;2023-07-08T15:54:13;2.40;;;1.15;;
6452;SDS011;3259;51.080;13.712;2023-07-08T15:57:03;2.55;;;1.08;;
6452;SDS011;3259;51.080;13.712;2023-07-08T15:59:54;3.03;;;1.58;;
6452;SDS011;3259;51.080;13.712;2023-07-08T16:02:43;2.63;;;1.67;;
6452;SDS011;3259;51.080;13.712;2023-07-08T16:05:32;2.28;;;1.00;;
6452;SDS011;3259;51.080;13.712;2023-07-08T16:08:22;1.35;;;1.25;;
6452;SDS011;3259;51.080;13.712;2023-07-08T16:11:14;4.32;;;1.40;;
6452;SDS011;3259;51.080;13.712;2023-07-08T16:14:05;9.77;;;1.27;;
6452;SDS011;3259;51.080;13.712;2023-07-08T16:16:56;3.13;;;1.40;;
6452;SDS011;3259;51.080;13.712;2023-07-08T16:19:45;3.30;;;1.40;;
6452;SDS011;3259;51.080;13.712;2023-07-08T16:22:34;4.05;;;1.08;;
6452;SDS011;3259;51.080;13.712;2023-07-08T16:25:26;7.18;;;1.02;;
6452;SDS011;3259;51.080;13.712;2023-07-08T16:28:21;4.25;;;1.55;;
6452;SDS011;3259;51.080;13.712;2023-07-08T16:31:15;5.15;;;1.30;;
6452;SDS011;3259;51.080;13.712;2023-07-08T16:34:06;1.65;;;1.23;;
6452;SDS011;3259;51.080;13.712;2023-07-08T16:36:56;1.70;;;1.00;;
6452;SDS011;3259;51.080;13.712;2023-07-08T16:39:45;0.90;;;0.90;;
6452;SDS011;3259;51.080;13.712;2023-07-08T16:42:34;3.38;;;1.02;;
6452;SDS011;3259;51.080;13.712;2023-07-08T16:45:24;2.22;;;1.17;;
6452;SDS011;3259;51.080;13.712;2023-07-08T16:48:14;1.25;;;1.15;;
6452;SDS011;3259;51.080;13.712;2023-07-08T16:51:03;8.00;;;1.38;;
6452;SDS011;3259;51.080;13.712;2023-07-08T16:53:54;1.20;;;1.10;;
6452;SDS011;3259;51.080;13.712;2023-07-08T16:56:45;1.95;;;1.25;;
6452;SDS011;3259;51.080;13.712;2023-07-08T16:59:34;5.05;;;1.23;;
6452;SDS011;3259;51.080;13.712;2023-07-08T17:02:24;6.40;;;1.45;;
6452;SDS011;3259;51.080;13.712;2023-07-08T17:05:17;4.22;;;1.27;;
6452;SDS011;3259;51.080;13.712;2023-07-08T17:08:09;7.70;;;1.55;;
6452;SDS011;3259;51.080;13.712;2023-07-08T17:11:00;3.97;;;1.17;;
6452;SDS011;3259;51.080;13.712;2023-07-08T17:13:49;2.10;;;1.27;;
6452;SDS011;3259;51.080;13.712;2023-07-08T17:16:38;4.20;;;0.90;;
6452;SDS011;3259;51.080;13.712;2023-07-08T17:19:29;1.15;;;1.00;;
6452;SDS011;3259;51.080;13.712;2023-07-08T17:22:18;2.92;;;1.20;;
6452;SDS011;3259;51.080;13.712;2023-07-08T17:25:08;6.15;;;1.30;;
6452;SDS011;3259;51.080;13.712;2023-07-08T17:28:01;2.95;;;1.52;;